sensor_id;sensor_type;location;lat;lon;timestamp;P1;durP1;ratioP1;P2;durP2;ratioP2
18196;SDS011;9224;52.422;13.024;2023-03-13T00:02:17;18.50;;;8.93;;
18196;SDS011;9224;52.422;13.024;2023-03-13T00:04:45;16.55;;;9.82;;
18196;SDS011;9224;52.422;13.024;2023-03-13T00:07:12;15.10;;;9.73;;
18196;SDS011;9224;52.422;13.024;2023-03-13T00:09:38;14.93;;;9.80;;
18196;SDS011;9224;52.422;13.024;2023-03-13T00:12:05;18.23;;;9.85;;
18196;SDS011;9224;52.422;13.024;2023-03-13T00:14:32;15.82;;;10.07;;
18196;SDS011;9224;52.422;13.024;2023-03-13T00:16:59;17.10;;;10.05;;
18196;SDS011;9224;52.422;13.024;2023-03-13T00:19:27;17.55;;;9.75;;
18196;SDS011;9224;52.422;13.024;2023-03-13T00:21:55;17.83;;;10.00;;
18196;SDS011;9224;52.422;13.024;2023-03-13T00:24:21;18.63;;;10.05;;
18196;SDS011;9224;52.422;13.024;2023-03-13T00:26:48;17.00;;;9.90;;
18196;SDS011;9224;52.422;13.024;2023-03-13T00:29:14;16.33;;;9.82;;
18196;SDS011;9224;52.422;13.024;2023-03-13T00:31:41;18.42;;;10.23;;
18196;SDS011;9224;52.422;13.024;2023-03-13T00:34:07;18.25;;;10.38;;
18196;SDS011;9224;52.422;13.024;2023-03-13T00:36:34;16.20;;;9.98;;
18196;SDS011;9224;52.422;13.024;2023-03-13T00:39:04;16.83;;;9.77;;
18196;SDS011;9224;52.422;13.024;2023-03-13T00:41:31;18.17;;;9.95;;
18196;SDS011;9224;52.422;13.024;2023-03-13T00:43:58;14.43;;;9.60;;
18196;SDS011;9224;52.422;13.024;2023-03-13T00:46:26;18.25;;;9.77;;
18196;SDS011;9224;52.422;13.024;2023-03-13T00:48:53;15.18;;;9.30;;
18196;SDS011;9224;52.422;13.024;2023-03-13T00:51:20;14.82;;;10.57;;
18196;SDS011;9224;52.422;13.024;2023-03-13T00:53:50;14.27;;;9.25;;
18196;SDS011;9224;52.422;13.024;2023-03-13T00:56:19;15.05;;;9.38;;
18196;SDS011;9224;52.422;13.024;2023-03-13T00:58:46;13.93;;;9.27;;
18196;SDS011;9224;52.422;13.024;2023-03-13T01:01:14;15.13;;;9.38;;
18196;SDS011;9224;52.422;13.024;2023-03-13T01:03:43;13.85;;;9.45;;
18196;SDS011;9224;52.422;13.024;2023-03-13T01:06:12;15.85;;;9.45;;
18196;SDS011;9224;52.422;13.024;2023-03-13T01:08:40;16.50;;;9.52;;
18196;SDS011;9224;52.422;13.024;2023-03-13T01:11:07;14.73;;;8.93;;
18196;SDS011;9224;52.422;13.024;2023-03-13T01:13:36;13.43;;;8.87;;
18196;SDS011;9224;52.422;13.024;2023-03-13T01:16:03;13.68;;;9.05;;
18196;SDS011;9224;52.422;13.024;2023-03-13T01:18:32;13.93;;;9.25;;
18196;SDS011;9224;52.422;13.024;2023-03-13T01:20:59;12.73;;;8.45;;
18196;SDS011;9224;52.422;13.024;2023-03-13T01:23:26;13.45;;;8.30;;
18196;SDS011;9224;52.422;13.024;2023-03-13T01:25:53;12.18;;;8.02;;
18196;SDS011;9224;52.422;13.024;2023-03-13T01:28:19;13.73;;;7.73;;
18196;SDS011;9224;52.422;13.024;2023-03-13T01:30:47;13.15;;;7.65;;
18196;SDS011;9224;52.422;13.024;2023-03-13T01:33:14;14.57;;;8.13;;
18196;SDS011;9224;52.422;13.024;2023-03-13T01:35:41;14.57;;;7.95;;
18196;SDS011;9224;52.422;13.024;2023-03-13T01:38:08;12.77;;;7.10;;
18196;SDS011;9224;52.422;13.024;2023-03-13T01:40:38;10.75;;;7.35;;
18196;SDS011;9224;52.422;13.024;2023-03-13T01:43:11;16.02;;;7.60;;
18196;SDS011;9224;52.422;13.024;2023-03-13T01:46:00;10.32;;;6.88;;
18196;SDS011;9224;52.422;13.024;2023-03-13T01:48:30;13.23;;;7.40;;
18196;SDS011;9224;52.422;13.024;2023-03-13T01:51:01;12.68;;;6.90;;
18196;SDS011;9224;52.422;13.024;2023-03-13T01:53:30;12.77;;;6.63;;
18196;SDS011;9224;52.422;13.024;2023-03-13T01:55:59;15.07;;;7.20;;
18196;SDS011;9224;52.422;13.024;2023-03-13T01:58:26;12.70;;;6.85;;
18196;SDS011;9224;52.422;13.024;2023-03-13T02:00:53;13.88;;;6.13;;
18196;SDS011;9224;52.422;13.024;2023-03-13T02:03:22;12.40;;;6.15;;
18196;SDS011;9224;52.422;13.024;2023-03-13T02:05:49;14.13;;;6.93;;
18196;SDS011;9224;52.422;13.024;2023-03-13T02:08:16;11.63;;;6.43;;
18196;SDS011;9224;52.422;13.024;2023-03-13T02:10:47;13.63;;;6.53;;
18196;SDS011;9224;52.422;13.024;2023-03-13T02:13:17;13.23;;;6.63;;
18196;SDS011;9224;52.422;13.024;2023-03-13T02:15:45;12.02;;;6.35;;
18196;SDS011;9224;52.422;13.024;2023-03-13T02:18:12;11.75;;;6.63;;
18196;SDS011;9224;52.422;13.024;2023-03-13T02:20:40;11.43;;;6.45;;
18196;SDS011;9224;52.422;13.024;2023-03-13T02:23:09;14.10;;;6.18;;
18196;SDS011;9224;52.422;13.024;2023-03-13T02:25:42;11.87;;;5.93;;
18196;SDS011;9224;52.422;13.024;2023-03-13T02:28:10;13.07;;;6.10;;
18196;SDS011;9224;52.422;13.024;2023-03-13T02:30:38;12.50;;;5.82;;
18196;SDS011;9224;52.422;13.024;2023-03-13T02:33:05;13.50;;;6.15;;
18196;SDS011;9224;52.422;13.024;2023-03-13T02:35:32;12.98;;;6.00;;
18196;SDS011;9224;52.422;13.024;2023-03-13T02:38:01;12.55;;;5.85;;
18196;SDS011;9224;52.422;13.024;2023-03-13T02:40:30;13.75;;;5.57;;
18196;SDS011;9224;52.422;13.024;2023-03-13T02:43:00;11.70;;;5.80;;
18196;SDS011;9224;52.422;13.024;2023-03-13T02:45:30;15.73;;;5.50;;
18196;SDS011;9224;52.422;13.024;2023-03-13T02:47:57;15.25;;;5.90;;
18196;SDS011;9224;52.422;13.024;2023-03-13T02:50:24;14.75;;;5.53;;
18196;SDS011;9224;52.422;13.024;2023-03-13T02:52:51;13.98;;;5.57;;
18196;SDS011;9224;52.422;13.024;2023-03-13T02:55:20;8.95;;;5.05;;
18196;SDS011;9224;52.422;13.024;2023-03-13T02:57:50;11.73;;;5.20;;
18196;SDS011;9224;52.422;13.024;2023-03-13T03:00:18;11.85;;;5.38;;
18196;SDS011;9224;52.422;13.024;2023-03-13T03:02:50;11.07;;;5.00;;
18196;SDS011;9224;52.422;13.024;2023-03-13T03:05:17;12.70;;;5.30;;
18196;SDS011;9224;52.422;13.024;2023-03-13T03:07:43;13.38;;;5.15;;
18196;SDS011;9224;52.422;13.024;2023-03-13T03:10:10;11.70;;;4.75;;
18196;SDS011;9224;52.422;13.024;2023-03-13T03:12:40;12.52;;;5.53;;
18196;SDS011;9224;52.422;13.024;2023-03-13T03:15:27;13.68;;;4.97;;
18196;SDS011;9224;52.422;13.024;2023-03-13T03:18:12;13.73;;;5.20;;
18196;SDS011;9224;52.422;13.024;2023-03-13T03:20:57;11.18;;;4.95;;
18196;SDS011;9224;52.422;13.024;2023-03-13T03:23:43;14.88;;;5.22;;
18196;SDS011;9224;52.422;13.024;2023-03-13T03:26:10;13.13;;;5.00;;
18196;SDS011;9224;52.422;13.024;2023-03-13T03:28:36;11.82;;;5.18;;
18196;SDS011;9224;52.422;13.024;2023-03-13T03:31:05;14.00;;;4.90;;
18196;SDS011;9224;52.422;13.024;2023-03-13T03:33:31;13.13;;;4.80;;
18196;SDS011;9224;52.422;13.024;2023-03-13T03:35:58;11.82;;;4.82;;
18196;SDS011;9224;52.422;13.024;2023-03-13T03:38:25;12.35;;;5.30;;
18196;SDS011;9224;52.422;13.024;2023-03-13T03:40:52;14.00;;;5.80;;
18196;SDS011;9224;52.422;13.024;2023-03-13T03:43:19;17.20;;;5.15;;
18196;SDS011;9224;52.422;13.024;2023-03-13T03:45:45;13.88;;;4.80;;
18196;SDS011;9224;52.422;13.024;2023-03-13T03:48:13;13.70;;;5.25;;
18196;SDS011;9224;52.422;13.024;2023-03-13T03:50:40;18.23;;;5.72;;
18196;SDS011;9224;52.422;13.024;2023-03-13T03:53:07;12.25;;;5.20;;
18196;SDS011;9224;52.422;13.024;2023-03-13T03:55:35;13.25;;;4.82;;
18196;SDS011;9224;52.422;13.024;2023-03-13T03:58:01;15.23;;;5.45;;
18196;SDS011;9224;52.422;13.024;2023-03-13T04:00:29;11.38;;;5.32;;
18196;SDS011;9224;52.422;13.024;2023-03-13T04:02:56;13.98;;;5.72;;
18196;SDS011;9224;52.422;13.024;2023-03-13T04:05:24;13.45;;;5.10;;
18196;SDS011;9224;52.422;13.024;2023-03-13T04:07:50;13.27;;;5.43;;
18196;SDS011;9224;52.422;13.024;2023-03-13T04:10:17;14.35;;;5.03;;
18196;SDS011;9224;52.422;13.024;2023-03-13T04:12:44;13.50;;;5.55;;
18196;SDS011;9224;52.422;13.024;2023-03-13T04:15:11;13.15;;;4.93;;
18196;SDS011;9224;52.422;13.024;2023-03-13T04:17:37;12.85;;;4.80;;
18196;SDS011;9224;52.422;13.024;2023-03-13T04:20:04;14.07;;;5.17;;
18196;SDS011;9224;52.422;13.024;2023-03-13T04:22:33;15.15;;;5.15;;
18196;SDS011;9224;52.422;13.024;2023-03-13T04:25:00;16.17;;;5.37;;
18196;SDS011;9224;52.422;13.024;2023-03-13T04:27:26;15.60;;;5.32;;
18196;SDS011;9224;52.422;13.024;2023-03-13T04:29:53;15.38;;;4.70;;
18196;SDS011;9224;52.422;13.024;2023-03-13T04:32:20;15.02;;;4.95;;
18196;SDS011;9224;52.422;13.024;2023-03-13T04:34:46;15.95;;;5.10;;
18196;SDS011;9224;52.422;13.024;2023-03-13T04:37:13;18.13;;;5.75;;
18196;SDS011;9224;52.422;13.024;2023-03-13T04:39:41;14.77;;;4.93;;
18196;SDS011;9224;52.422;13.024;2023-03-13T04:42:08;14.95;;;5.00;;
18196;SDS011;9224;52.422;13.024;2023-03-13T04:44:35;15.63;;;5.20;;
18196;SDS011;9224;52.422;13.024;2023-03-13T04:47:02;14.43;;;5.35;;
18196;SDS011;9224;52.422;13.024;2023-03-13T04:49:28;16.80;;;5.35;;
18196;SDS011;9224;52.422;13.024;2023-03-13T04:51:55;15.68;;;5.60;;
18196;SDS011;9224;52.422;13.024;2023-03-13T04:54:22;14.45;;;4.93;;
18196;SDS011;9224;52.422;13.024;2023-03-13T04:56:50;15.82;;;5.05;;
18196;SDS011;9224;52.422;13.024;2023-03-13T04:59:16;17.23;;;5.38;;
18196;SDS011;9224;52.422;13.024;2023-03-13T05:01:43;17.15;;;5.63;;
18196;SDS011;9224;52.422;13.024;2023-03-13T05:04:10;16.20;;;5.37;;
18196;SDS011;9224;52.422;13.024;2023-03-13T05:06:37;17.52;;;5.85;;
18196;SDS011;9224;52.422;13.024;2023-03-13T05:09:04;15.75;;;5.13;;
18196;SDS011;9224;52.422;13.024;2023-03-13T05:11:30;15.90;;;5.10;;
18196;SDS011;9224;52.422;13.024;2023-03-13T05:13:58;18.13;;;5.45;;
18196;SDS011;9224;52.422;13.024;2023-03-13T05:16:25;17.17;;;5.80;;
18196;SDS011;9224;52.422;13.024;2023-03-13T05:18:52;20.45;;;6.13;;
18196;SDS011;9224;52.422;13.024;2023-03-13T05:21:18;16.70;;;5.63;;
18196;SDS011;9224;52.422;13.024;2023-03-13T05:23:45;16.25;;;5.28;;
18196;SDS011;9224;52.422;13.024;2023-03-13T05:26:11;19.37;;;5.23;;
18196;SDS011;9224;52.422;13.024;2023-03-13T05:28:38;16.23;;;5.43;;
18196;SDS011;9224;52.422;13.024;2023-03-13T05:31:08;21.45;;;6.07;;
18196;SDS011;9224;52.422;13.024;2023-03-13T05:33:34;18.00;;;5.47;;
18196;SDS011;9224;52.422;13.024;2023-03-13T05:36:01;20.48;;;6.22;;
18196;SDS011;9224;52.422;13.024;2023-03-13T05:38:28;19.58;;;6.00;;
18196;SDS011;9224;52.422;13.024;2023-03-13T05:40:54;17.73;;;5.80;;
18196;SDS011;9224;52.422;13.024;2023-03-13T05:43:21;18.80;;;5.60;;
18196;SDS011;9224;52.422;13.024;2023-03-13T05:45:47;19.13;;;5.45;;
18196;SDS011;9224;52.422;13.024;2023-03-13T05:48:15;15.23;;;5.53;;
18196;SDS011;9224;52.422;13.024;2023-03-13T05:50:42;18.40;;;5.40;;
18196;SDS011;9224;52.422;13.024;2023-03-13T05:53:09;17.85;;;5.55;;
18196;SDS011;9224;52.422;13.024;2023-03-13T05:55:35;18.35;;;5.72;;
18196;SDS011;9224;52.422;13.024;2023-03-13T05:58:02;15.43;;;5.78;;
18196;SDS011;9224;52.422;13.024;2023-03-13T06:00:28;20.23;;;5.80;;
18196;SDS011;9224;52.422;13.024;2023-03-13T06:02:55;21.48;;;6.35;;
18196;SDS011;9224;52.422;13.024;2023-03-13T06:05:23;17.75;;;6.00;;
18196;SDS011;9224;52.422;13.024;2023-03-13T06:07:50;21.03;;;6.10;;
18196;SDS011;9224;52.422;13.024;2023-03-13T06:10:16;18.58;;;6.25;;
18196;SDS011;9224;52.422;13.024;2023-03-13T06:12:43;23.10;;;6.38;;
18196;SDS011;9224;52.422;13.024;2023-03-13T06:15:10;19.25;;;5.65;;
18196;SDS011;9224;52.422;13.024;2023-03-13T06:17:37;18.90;;;5.78;;
18196;SDS011;9224;52.422;13.024;2023-03-13T06:20:04;16.25;;;5.82;;
18196;SDS011;9224;52.422;13.024;2023-03-13T06:22:32;21.00;;;5.85;;
18196;SDS011;9224;52.422;13.024;2023-03-13T06:24:59;18.05;;;5.65;;
18196;SDS011;9224;52.422;13.024;2023-03-13T06:27:25;20.30;;;6.10;;
18196;SDS011;9224;52.422;13.024;2023-03-13T06:29:52;17.35;;;6.22;;
18196;SDS011;9224;52.422;13.024;2023-03-13T06:32:19;21.50;;;6.00;;
18196;SDS011;9224;52.422;13.024;2023-03-13T06:34:45;17.80;;;6.10;;
18196;SDS011;9224;52.422;13.024;2023-03-13T06:37:12;21.08;;;6.65;;
18196;SDS011;9224;52.422;13.024;2023-03-13T06:39:40;16.92;;;5.97;;
18196;SDS011;9224;52.422;13.024;2023-03-13T06:42:06;17.63;;;5.72;;
18196;SDS011;9224;52.422;13.024;2023-03-13T06:44:33;18.77;;;6.03;;
18196;SDS011;9224;52.422;13.024;2023-03-13T06:47:00;17.85;;;6.05;;
18196;SDS011;9224;52.422;13.024;2023-03-13T06:49:26;21.40;;;6.47;;
18196;SDS011;9224;52.422;13.024;2023-03-13T06:51:55;19.88;;;6.32;;
18196;SDS011;9224;52.422;13.024;2023-03-13T06:54:22;23.98;;;6.90;;
18196;SDS011;9224;52.422;13.024;2023-03-13T06:56:50;17.52;;;5.97;;
18196;SDS011;9224;52.422;13.024;2023-03-13T06:59:17;20.80;;;6.95;;
18196;SDS011;9224;52.422;13.024;2023-03-13T07:01:44;19.27;;;5.93;;
18196;SDS011;9224;52.422;13.024;2023-03-13T07:04:10;20.45;;;5.95;;
18196;SDS011;9224;52.422;13.024;2023-03-13T07:06:37;18.70;;;6.33;;
18196;SDS011;9224;52.422;13.024;2023-03-13T07:09:04;18.02;;;5.80;;
18196;SDS011;9224;52.422;13.024;2023-03-13T07:11:31;18.58;;;6.47;;
18196;SDS011;9224;52.422;13.024;2023-03-13T07:13:59;18.90;;;6.18;;
18196;SDS011;9224;52.422;13.024;2023-03-13T07:16:26;20.73;;;6.55;;
18196;SDS011;9224;52.422;13.024;2023-03-13T07:18:53;18.23;;;6.68;;
18196;SDS011;9224;52.422;13.024;2023-03-13T07:21:19;19.85;;;6.30;;
18196;SDS011;9224;52.422;13.024;2023-03-13T07:23:46;17.10;;;6.47;;
18196;SDS011;9224;52.422;13.024;2023-03-13T07:26:13;21.67;;;6.30;;
18196;SDS011;9224;52.422;13.024;2023-03-13T07:28:40;19.35;;;6.30;;
18196;SDS011;9224;52.422;13.024;2023-03-13T07:31:09;23.08;;;6.63;;
18196;SDS011;9224;52.422;13.024;2023-03-13T07:33:38;46.15;;;7.85;;
18196;SDS011;9224;52.422;13.024;2023-03-13T07:36:04;17.85;;;5.95;;
18196;SDS011;9224;52.422;13.024;2023-03-13T07:38:31;22.65;;;5.97;;
18196;SDS011;9224;52.422;13.024;2023-03-13T07:40:59;21.00;;;5.68;;
18196;SDS011;9224;52.422;13.024;2023-03-13T07:43:25;19.48;;;6.20;;
18196;SDS011;9224;52.422;13.024;2023-03-13T07:45:54;18.47;;;6.50;;
18196;SDS011;9224;52.422;13.024;2023-03-13T07:48:23;18.80;;;5.40;;
18196;SDS011;9224;52.422;13.024;2023-03-13T07:50:50;21.15;;;6.28;;
18196;SDS011;9224;52.422;13.024;2023-03-13T07:53:17;18.70;;;6.10;;
18196;SDS011;9224;52.422;13.024;2023-03-13T07:55:52;15.45;;;5.57;;
18196;SDS011;9224;52.422;13.024;2023-03-13T07:58:20;21.83;;;6.05;;
18196;SDS011;9224;52.422;13.024;2023-03-13T08:00:46;20.20;;;5.83;;
18196;SDS011;9224;52.422;13.024;2023-03-13T08:03:13;17.10;;;6.13;;
18196;SDS011;9224;52.422;13.024;2023-03-13T08:05:41;15.10;;;5.88;;
18196;SDS011;9224;52.422;13.024;2023-03-13T08:08:08;17.73;;;5.60;;
18196;SDS011;9224;52.422;13.024;2023-03-13T08:10:34;16.25;;;5.18;;
18196;SDS011;9224;52.422;13.024;2023-03-13T08:13:01;18.60;;;5.40;;
18196;SDS011;9224;52.422;13.024;2023-03-13T08:15:30;15.10;;;5.38;;
18196;SDS011;9224;52.422;13.024;2023-03-13T08:17:57;15.63;;;5.30;;
18196;SDS011;9224;52.422;13.024;2023-03-13T08:20:23;15.00;;;4.95;;
18196;SDS011;9224;52.422;13.024;2023-03-13T08:22:52;14.63;;;4.97;;
18196;SDS011;9224;52.422;13.024;2023-03-13T08:25:20;13.32;;;5.05;;
18196;SDS011;9224;52.422;13.024;2023-03-13T08:27:47;14.27;;;4.78;;
18196;SDS011;9224;52.422;13.024;2023-03-13T08:30:14;17.30;;;5.07;;
18196;SDS011;9224;52.422;13.024;2023-03-13T08:32:40;15.70;;;5.40;;
18196;SDS011;9224;52.422;13.024;2023-03-13T08:35:07;14.23;;;4.90;;
18196;SDS011;9224;52.422;13.024;2023-03-13T08:37:34;15.30;;;4.93;;
18196;SDS011;9224;52.422;13.024;2023-03-13T08:40:02;14.95;;;4.93;;
18196;SDS011;9224;52.422;13.024;2023-03-13T08:42:34;11.93;;;4.70;;
18196;SDS011;9224;52.422;13.024;2023-03-13T08:45:02;12.85;;;4.50;;
18196;SDS011;9224;52.422;13.024;2023-03-13T08:47:29;14.13;;;4.80;;
18196;SDS011;9224;52.422;13.024;2023-03-13T08:49:55;12.57;;;4.47;;
18196;SDS011;9224;52.422;13.024;2023-03-13T08:52:22;13.18;;;4.70;;
18196;SDS011;9224;52.422;13.024;2023-03-13T08:54:49;14.52;;;4.80;;
18196;SDS011;9224;52.422;13.024;2023-03-13T08:57:17;10.45;;;4.55;;
18196;SDS011;9224;52.422;13.024;2023-03-13T08:59:43;10.83;;;4.83;;
18196;SDS011;9224;52.422;13.024;2023-03-13T09:02:10;12.63;;;4.90;;
18196;SDS011;9224;52.422;13.024;2023-03-13T09:04:43;11.75;;;4.40;;
18196;SDS011;9224;52.422;13.024;2023-03-13T09:07:09;9.82;;;4.18;;
18196;SDS011;9224;52.422;13.024;2023-03-13T09:09:36;11.37;;;3.93;;
18196;SDS011;9224;52.422;13.024;2023-03-13T09:12:03;10.70;;;4.50;;
18196;SDS011;9224;52.422;13.024;2023-03-13T09:14:31;12.82;;;4.45;;
18196;SDS011;9224;52.422;13.024;2023-03-13T09:16:58;8.45;;;3.75;;
18196;SDS011;9224;52.422;13.024;2023-03-13T09:19:24;11.00;;;4.18;;
18196;SDS011;9224;52.422;13.024;2023-03-13T09:21:51;9.93;;;3.80;;
18196;SDS011;9224;52.422;13.024;2023-03-13T09:24:17;11.93;;;4.03;;
18196;SDS011;9224;52.422;13.024;2023-03-13T09:26:44;8.18;;;3.90;;
18196;SDS011;9224;52.422;13.024;2023-03-13T09:29:11;12.90;;;4.20;;
18196;SDS011;9224;52.422;13.024;2023-03-13T09:31:39;9.90;;;4.30;;
18196;SDS011;9224;52.422;13.024;2023-03-13T09:34:05;12.50;;;4.45;;
18196;SDS011;9224;52.422;13.024;2023-03-13T09:36:32;10.07;;;4.18;;
18196;SDS011;9224;52.422;13.024;2023-03-13T09:38:59;9.60;;;3.83;;
18196;SDS011;9224;52.422;13.024;2023-03-13T09:41:26;12.60;;;4.25;;
18196;SDS011;9224;52.422;13.024;2023-03-13T09:43:59;8.40;;;3.80;;
18196;SDS011;9224;52.422;13.024;2023-03-13T09:46:30;8.35;;;3.60;;
18196;SDS011;9224;52.422;13.024;2023-03-13T09:49:03;10.63;;;3.78;;
18196;SDS011;9224;52.422;13.024;2023-03-13T09:51:34;7.32;;;3.58;;
18196;SDS011;9224;52.422;13.024;2023-03-13T09:54:03;7.65;;;3.70;;
18196;SDS011;9224;52.422;13.024;2023-03-13T09:56:33;11.80;;;3.95;;
18196;SDS011;9224;52.422;13.024;2023-03-13T09:59:04;10.07;;;3.60;;
18196;SDS011;9224;52.422;13.024;2023-03-13T10:01:36;10.40;;;3.75;;
18196;SDS011;9224;52.422;13.024;2023-03-13T10:04:06;8.60;;;3.85;;
18196;SDS011;9224;52.422;13.024;2023-03-13T10:06:40;6.65;;;3.42;;
18196;SDS011;9224;52.422;13.024;2023-03-13T10:09:14;7.63;;;3.42;;
18196;SDS011;9224;52.422;13.024;2023-03-13T10:11:46;8.23;;;3.58;;
18196;SDS011;9224;52.422;13.024;2023-03-13T10:14:15;9.70;;;3.90;;
18196;SDS011;9224;52.422;13.024;2023-03-13T10:16:47;6.55;;;3.42;;
18196;SDS011;9224;52.422;13.024;2023-03-13T10:19:17;7.53;;;3.42;;
18196;SDS011;9224;52.422;13.024;2023-03-13T10:21:46;6.28;;;3.50;;
18196;SDS011;9224;52.422;13.024;2023-03-13T10:24:16;6.32;;;3.20;;
18196;SDS011;9224;52.422;13.024;2023-03-13T10:26:44;7.03;;;3.38;;
18196;SDS011;9224;52.422;13.024;2023-03-13T10:29:18;6.70;;;3.13;;
18196;SDS011;9224;52.422;13.024;2023-03-13T10:31:48;7.37;;;3.17;;
18196;SDS011;9224;52.422;13.024;2023-03-13T10:34:21;5.78;;;3.13;;
18196;SDS011;9224;52.422;13.024;2023-03-13T10:36:49;6.13;;;2.95;;
18196;SDS011;9224;52.422;13.024;2023-03-13T10:39:20;5.82;;;2.85;;
18196;SDS011;9224;52.422;13.024;2023-03-13T10:41:48;5.80;;;2.63;;
18196;SDS011;9224;52.422;13.024;2023-03-13T10:44:16;5.28;;;2.80;;
18196;SDS011;9224;52.422;13.024;2023-03-13T10:46:45;4.40;;;2.83;;
18196;SDS011;9224;52.422;13.024;2023-03-13T10:49:14;5.68;;;3.10;;
18196;SDS011;9224;52.422;13.024;2023-03-13T10:51:45;4.60;;;2.93;;
18196;SDS011;9224;52.422;13.024;2023-03-13T10:54:14;6.30;;;2.95;;
18196;SDS011;9224;52.422;13.024;2023-03-13T10:56:46;5.00;;;2.85;;
18196;SDS011;9224;52.422;13.024;2023-03-13T10:59:20;5.00;;;2.72;;
18196;SDS011;9224;52.422;13.024;2023-03-13T11:01:48;4.60;;;2.70;;
18196;SDS011;9224;52.422;13.024;2023-03-13T11:04:20;3.55;;;2.35;;
18196;SDS011;9224;52.422;13.024;2023-03-13T11:07:00;5.15;;;2.67;;
18196;SDS011;9224;52.422;13.024;2023-03-13T11:09:28;3.43;;;2.27;;
18196;SDS011;9224;52.422;13.024;2023-03-13T11:11:55;4.13;;;1.95;;
18196;SDS011;9224;52.422;13.024;2023-03-13T11:14:27;3.20;;;2.22;;
18196;SDS011;9224;52.422;13.024;2023-03-13T11:16:55;3.40;;;2.13;;
18196;SDS011;9224;52.422;13.024;2023-03-13T11:19:27;3.97;;;2.30;;
18196;SDS011;9224;52.422;13.024;2023-03-13T11:21:59;2.78;;;1.80;;
18196;SDS011;9224;52.422;13.024;2023-03-13T11:24:34;3.20;;;2.00;;
18196;SDS011;9224;52.422;13.024;2023-03-13T11:27:07;2.28;;;1.73;;
18196;SDS011;9224;52.422;13.024;2023-03-13T11:29:42;3.10;;;2.03;;
18196;SDS011;9224;52.422;13.024;2023-03-13T11:32:16;2.38;;;1.80;;
18196;SDS011;9224;52.422;13.024;2023-03-13T11:34:49;2.80;;;1.80;;
18196;SDS011;9224;52.422;13.024;2023-03-13T11:37:18;2.28;;;1.80;;
18196;SDS011;9224;52.422;13.024;2023-03-13T11:39:49;2.17;;;1.73;;
18196;SDS011;9224;52.422;13.024;2023-03-13T11:42:42;1.88;;;1.73;;
18196;SDS011;9224;52.422;13.024;2023-03-13T11:45:20;2.60;;;1.83;;
18196;SDS011;9224;52.422;13.024;2023-03-13T11:47:55;2.58;;;1.70;;
18196;SDS011;9224;52.422;13.024;2023-03-13T11:50:30;2.00;;;1.67;;
18196;SDS011;9224;52.422;13.024;2023-03-13T11:55:57;3.83;;;1.70;;
18196;SDS011;9224;52.422;13.024;2023-03-13T11:58:35;1.95;;;1.63;;
18196;SDS011;9224;52.422;13.024;2023-03-13T12:01:06;1.70;;;1.50;;
18196;SDS011;9224;52.422;13.024;2023-03-13T12:03:35;1.55;;;1.45;;
18196;SDS011;9224;52.422;13.024;2023-03-13T12:06:04;1.48;;;1.38;;
18196;SDS011;9224;52.422;13.024;2023-03-13T12:08:34;3.15;;;1.30;;
18196;SDS011;9224;52.422;13.024;2023-03-13T12:11:05;2.30;;;1.30;;
18196;SDS011;9224;52.422;13.024;2023-03-13T12:13:39;1.90;;;1.20;;
18196;SDS011;9224;52.422;13.024;2023-03-13T12:16:08;1.50;;;1.30;;
18196;SDS011;9224;52.422;13.024;2023-03-13T12:18:37;1.58;;;1.17;;
18196;SDS011;9224;52.422;13.024;2023-03-13T12:21:06;1.48;;;1.20;;
18196;SDS011;9224;52.422;13.024;2023-03-13T12:23:41;1.70;;;1.20;;
18196;SDS011;9224;52.422;13.024;2023-03-13T12:26:11;1.20;;;1.10;;
18196;SDS011;9224;52.422;13.024;2023-03-13T12:28:40;2.10;;;1.23;;
18196;SDS011;9224;52.422;13.024;2023-03-13T12:31:15;1.38;;;1.27;;
18196;SDS011;9224;52.422;13.024;2023-03-13T12:33:45;1.88;;;1.30;;
18196;SDS011;9224;52.422;13.024;2023-03-13T12:36:17;1.92;;;1.75;;
18196;SDS011;9224;52.422;13.024;2023-03-13T12:38:48;1.65;;;1.52;;
18196;SDS011;9224;52.422;13.024;2023-03-13T12:41:19;2.17;;;1.40;;
18196;SDS011;9224;52.422;13.024;2023-03-13T12:43:49;1.30;;;1.20;;
18196;SDS011;9224;52.422;13.024;2023-03-13T12:46:28;2.47;;;1.30;;
18196;SDS011;9224;52.422;13.024;2023-03-13T12:49:04;1.33;;;1.23;;
18196;SDS011;9224;52.422;13.024;2023-03-13T12:51:53;0.80;;;0.80;;
18196;SDS011;9224;52.422;13.024;2023-03-13T12:54:38;2.60;;;1.52;;
18196;SDS011;9224;52.422;13.024;2023-03-13T12:57:13;1.17;;;1.08;;
18196;SDS011;9224;52.422;13.024;2023-03-13T12:59:47;2.00;;;1.35;;
18196;SDS011;9224;52.422;13.024;2023-03-13T13:02:18;1.50;;;1.33;;
18196;SDS011;9224;52.422;13.024;2023-03-13T13:04:47;1.20;;;1.10;;
18196;SDS011;9224;52.422;13.024;2023-03-13T13:07:19;2.75;;;1.60;;
18196;SDS011;9224;52.422;13.024;2023-03-13T13:10:03;1.45;;;1.13;;
18196;SDS011;9224;52.422;13.024;2023-03-13T13:12:42;2.30;;;1.57;;
18196;SDS011;9224;52.422;13.024;2023-03-13T13:15:17;2.85;;;1.67;;
18196;SDS011;9224;52.422;13.024;2023-03-13T13:17:48;1.83;;;1.45;;
18196;SDS011;9224;52.422;13.024;2023-03-13T13:20:24;1.80;;;1.30;;
18196;SDS011;9224;52.422;13.024;2023-03-13T13:22:54;2.63;;;1.42;;
18196;SDS011;9224;52.422;13.024;2023-03-13T13:25:28;1.45;;;1.35;;
18196;SDS011;9224;52.422;13.024;2023-03-13T13:28:09;1.57;;;1.30;;
18196;SDS011;9224;52.422;13.024;2023-03-13T13:30:37;2.28;;;1.63;;
18196;SDS011;9224;52.422;13.024;2023-03-13T13:38:56;2.77;;;1.20;;
18196;SDS011;9224;52.422;13.024;2023-03-13T13:41:34;1.50;;;1.40;;
18196;SDS011;9224;52.422;13.024;2023-03-13T13:44:22;1.98;;;1.40;;
18196;SDS011;9224;52.422;13.024;2023-03-13T13:46:51;1.92;;;1.38;;
18196;SDS011;9224;52.422;13.024;2023-03-13T13:49:19;2.03;;;1.55;;
18196;SDS011;9224;52.422;13.024;2023-03-13T13:54:59;1.60;;;1.50;;
18196;SDS011;9224;52.422;13.024;2023-03-13T13:57:28;2.30;;;1.90;;
18196;SDS011;9224;52.422;13.024;2023-03-13T13:59:58;2.10;;;1.60;;
18196;SDS011;9224;52.422;13.024;2023-03-13T14:02:31;1.83;;;1.60;;
18196;SDS011;9224;52.422;13.024;2023-03-13T14:05:01;1.90;;;1.70;;
18196;SDS011;9224;52.422;13.024;2023-03-13T14:07:45;2.88;;;1.85;;
18196;SDS011;9224;52.422;13.024;2023-03-13T14:10:24;2.10;;;1.77;;
18196;SDS011;9224;52.422;13.024;2023-03-13T14:12:56;2.65;;;1.65;;
18196;SDS011;9224;52.422;13.024;2023-03-13T14:15:25;2.22;;;2.03;;
18196;SDS011;9224;52.422;13.024;2023-03-13T14:17:53;1.88;;;1.58;;
18196;SDS011;9224;52.422;13.024;2023-03-13T14:20:22;2.45;;;2.10;;
18196;SDS011;9224;52.422;13.024;2023-03-13T14:22:51;2.40;;;1.90;;
18196;SDS011;9224;52.422;13.024;2023-03-13T14:25:18;2.65;;;1.90;;
18196;SDS011;9224;52.422;13.024;2023-03-13T14:27:46;2.03;;;1.90;;
18196;SDS011;9224;52.422;13.024;2023-03-13T14:30:16;1.80;;;1.70;;
18196;SDS011;9224;52.422;13.024;2023-03-13T14:32:44;2.72;;;1.85;;
18196;SDS011;9224;52.422;13.024;2023-03-13T14:35:12;3.92;;;1.77;;
18196;SDS011;9224;52.422;13.024;2023-03-13T14:37:41;2.65;;;1.85;;
18196;SDS011;9224;52.422;13.024;2023-03-13T14:40:08;2.20;;;1.53;;
18196;SDS011;9224;52.422;13.024;2023-03-13T14:42:45;2.40;;;1.80;;
18196;SDS011;9224;52.422;13.024;2023-03-13T14:45:15;3.30;;;1.80;;
18196;SDS011;9224;52.422;13.024;2023-03-13T14:47:48;1.93;;;1.53;;
18196;SDS011;9224;52.422;13.024;2023-03-13T14:50:15;2.08;;;1.65;;
18196;SDS011;9224;52.422;13.024;2023-03-13T14:52:43;1.70;;;1.60;;
18196;SDS011;9224;52.422;13.024;2023-03-13T14:55:28;2.15;;;1.70;;
18196;SDS011;9224;52.422;13.024;2023-03-13T14:57:57;2.38;;;1.77;;
18196;SDS011;9224;52.422;13.024;2023-03-13T15:00:37;3.60;;;1.90;;
18196;SDS011;9224;52.422;13.024;2023-03-13T15:03:12;1.83;;;1.70;;